sensor_id;sensor_type;location;lat;lon;timestamp;P1;durP1;ratioP1;P2;durP2;ratioP2
55069;SDS011;40967;52.070;8.596;2023-02-13T00:01:48;4.50;;;2.42;;
55069;SDS011;40967;52.070;8.596;2023-02-13T00:04:13;5.03;;;2.53;;
55069;SDS011;40967;52.070;8.596;2023-02-13T00:06:38;5.10;;;2.63;;
55069;SDS011;40967;52.070;8.596;2023-02-13T00:09:04;4.83;;;2.70;;
55069;SDS011;40967;52.070;8.596;2023-02-13T00:11:29;4.70;;;2.67;;
55069;SDS011;40967;52.070;8.596;2023-02-13T00:13:55;4.78;;;2.50;;
55069;SDS011;40967;52.070;8.596;2023-02-13T00:16:20;5.10;;;2.67;;
55069;SDS011;40967;52.070;8.596;2023-02-13T00:18:48;4.47;;;2.37;;
55069;SDS011;40967;52.070;8.596;2023-02-13T00:21:13;4.93;;;2.53;;
55069;SDS011;40967;52.070;8.596;2023-02-13T00:23:39;4.33;;;2.30;;
55069;SDS011;40967;52.070;8.596;2023-02-13T00:26:06;4.65;;;2.50;;
55069;SDS011;40967;52.070;8.596;2023-02-13T00:28:33;4.43;;;2.28;;
55069;SDS011;40967;52.070;8.596;2023-02-13T00:31:06;4.10;;;2.10;;
55069;SDS011;40967;52.070;8.596;2023-02-13T00:33:33;4.05;;;2.13;;
55069;SDS011;40967;52.070;8.596;2023-02-13T00:36:09;3.60;;;1.80;;
55069;SDS011;40967;52.070;8.596;2023-02-13T00:38:36;4.37;;;2.30;;
55069;SDS011;40967;52.070;8.596;2023-02-13T00:41:03;4.53;;;2.30;;
55069;SDS011;40967;52.070;8.596;2023-02-13T00:43:29;3.85;;;1.92;;
55069;SDS011;40967;52.070;8.596;2023-02-13T00:45:54;4.20;;;2.20;;
55069;SDS011;40967;52.070;8.596;2023-02-13T00:48:22;3.90;;;2.00;;
55069;SDS011;40967;52.070;8.596;2023-02-13T00:50:48;4.30;;;2.40;;
55069;SDS011;40967;52.070;8.596;2023-02-13T00:53:13;4.20;;;2.00;;
55069;SDS011;40967;52.070;8.596;2023-02-13T00:55:39;4.17;;;2.10;;
55069;SDS011;40967;52.070;8.596;2023-02-13T00:58:04;4.23;;;2.20;;
55069;SDS011;40967;52.070;8.596;2023-02-13T01:00:29;4.25;;;2.10;;
55069;SDS011;40967;52.070;8.596;2023-02-13T01:02:55;4.03;;;2.05;;
55069;SDS011;40967;52.070;8.596;2023-02-13T01:05:21;4.05;;;2.00;;
55069;SDS011;40967;52.070;8.596;2023-02-13T01:07:46;3.97;;;1.90;;
55069;SDS011;40967;52.070;8.596;2023-02-13T01:10:12;3.97;;;1.93;;
55069;SDS011;40967;52.070;8.596;2023-02-13T01:12:37;4.63;;;2.20;;
55069;SDS011;40967;52.070;8.596;2023-02-13T01:15:03;4.13;;;2.13;;
55069;SDS011;40967;52.070;8.596;2023-02-13T01:17:30;4.13;;;2.10;;
55069;SDS011;40967;52.070;8.596;2023-02-13T01:19:55;3.97;;;1.90;;
55069;SDS011;40967;52.070;8.596;2023-02-13T01:22:20;4.20;;;2.03;;
55069;SDS011;40967;52.070;8.596;2023-02-13T01:24:46;3.80;;;2.00;;
55069;SDS011;40967;52.070;8.596;2023-02-13T01:27:11;4.30;;;2.20;;
55069;SDS011;40967;52.070;8.596;2023-02-13T01:29:36;4.20;;;2.13;;
55069;SDS011;40967;52.070;8.596;2023-02-13T01:32:02;4.10;;;2.10;;
55069;SDS011;40967;52.070;8.596;2023-02-13T01:34:29;4.43;;;2.20;;
55069;SDS011;40967;52.070;8.596;2023-02-13T01:36:57;4.45;;;2.00;;
55069;SDS011;40967;52.070;8.596;2023-02-13T01:39:23;4.07;;;2.00;;
55069;SDS011;40967;52.070;8.596;2023-02-13T01:41:48;3.93;;;2.07;;
55069;SDS011;40967;52.070;8.596;2023-02-13T01:47:10;5.28;;;2.50;;
55069;SDS011;40967;52.070;8.596;2023-02-13T01:49:38;5.22;;;2.60;;
55069;SDS011;40967;52.070;8.596;2023-02-13T01:52:05;8.38;;;4.32;;
55069;SDS011;40967;52.070;8.596;2023-02-13T01:54:33;6.93;;;3.80;;
55069;SDS011;40967;52.070;8.596;2023-02-13T01:57:04;9.38;;;4.65;;
55069;SDS011;40967;52.070;8.596;2023-02-13T01:59:56;7.97;;;4.47;;
55069;SDS011;40967;52.070;8.596;2023-02-13T02:02:26;8.88;;;4.70;;
55069;SDS011;40967;52.070;8.596;2023-02-13T02:04:54;7.43;;;3.80;;
55069;SDS011;40967;52.070;8.596;2023-02-13T02:07:22;6.13;;;2.97;;
55069;SDS011;40967;52.070;8.596;2023-02-13T02:09:49;5.17;;;2.90;;
55069;SDS011;40967;52.070;8.596;2023-02-13T02:14:49;4.57;;;2.20;;
55069;SDS011;40967;52.070;8.596;2023-02-13T02:17:16;4.93;;;2.30;;
55069;SDS011;40967;52.070;8.596;2023-02-13T02:27:50;5.15;;;2.30;;
55069;SDS011;40967;52.070;8.596;2023-02-13T02:33:25;5.63;;;2.85;;
55069;SDS011;40967;52.070;8.596;2023-02-13T02:42:15;3.65;;;2.00;;
55069;SDS011;40967;52.070;8.596;2023-02-13T02:47:29;4.07;;;2.08;;
55069;SDS011;40967;52.070;8.596;2023-02-13T02:53:16;3.75;;;1.60;;
55069;SDS011;40967;52.070;8.596;2023-02-13T02:55:47;3.67;;;1.80;;
55069;SDS011;40967;52.070;8.596;2023-02-13T02:58:20;4.07;;;1.90;;
55069;SDS011;40967;52.070;8.596;2023-02-13T03:01:17;3.30;;;1.73;;
55069;SDS011;40967;52.070;8.596;2023-02-13T03:04:04;3.63;;;1.92;;
55069;SDS011;40967;52.070;8.596;2023-02-13T03:06:53;3.20;;;1.75;;
55069;SDS011;40967;52.070;8.596;2023-02-13T03:09:28;4.88;;;2.38;;
55069;SDS011;40967;52.070;8.596;2023-02-13T03:12:16;4.07;;;1.90;;
55069;SDS011;40967;52.070;8.596;2023-02-13T03:15:05;3.67;;;1.73;;
55069;SDS011;40967;52.070;8.596;2023-02-13T03:17:30;3.90;;;1.77;;
55069;SDS011;40967;52.070;8.596;2023-02-13T03:23:27;3.45;;;1.58;;
55069;SDS011;40967;52.070;8.596;2023-02-13T03:26:19;3.60;;;1.75;;
55069;SDS011;40967;52.070;8.596;2023-02-13T03:29:00;3.60;;;1.70;;
55069;SDS011;40967;52.070;8.596;2023-02-13T03:31:56;4.07;;;1.90;;
55069;SDS011;40967;52.070;8.596;2023-02-13T03:34:29;4.40;;;2.05;;
55069;SDS011;40967;52.070;8.596;2023-02-13T03:37:36;5.37;;;2.73;;
55069;SDS011;40967;52.070;8.596;2023-02-13T03:42:58;5.63;;;2.75;;
55069;SDS011;40967;52.070;8.596;2023-02-13T03:45:35;4.68;;;2.47;;
55069;SDS011;40967;52.070;8.596;2023-02-13T03:48:25;4.72;;;2.40;;
55069;SDS011;40967;52.070;8.596;2023-02-13T03:51:13;5.63;;;2.63;;
55069;SDS011;40967;52.070;8.596;2023-02-13T03:53:43;4.40;;;2.20;;
55069;SDS011;40967;52.070;8.596;2023-02-13T03:56:12;5.25;;;2.50;;
55069;SDS011;40967;52.070;8.596;2023-02-13T03:58:59;5.57;;;2.75;;
55069;SDS011;40967;52.070;8.596;2023-02-13T04:01:50;5.43;;;2.67;;
55069;SDS011;40967;52.070;8.596;2023-02-13T04:07:25;5.75;;;3.10;;
55069;SDS011;40967;52.070;8.596;2023-02-13T04:09:55;6.38;;;3.10;;
55069;SDS011;40967;52.070;8.596;2023-02-13T04:15:03;7.55;;;4.00;;
55069;SDS011;40967;52.070;8.596;2023-02-13T04:17:35;7.07;;;3.70;;
55069;SDS011;40967;52.070;8.596;2023-02-13T04:20:06;6.78;;;3.40;;
55069;SDS011;40967;52.070;8.596;2023-02-13T04:22:32;6.60;;;3.63;;
55069;SDS011;40967;52.070;8.596;2023-02-13T04:24:57;7.22;;;3.80;;
55069;SDS011;40967;52.070;8.596;2023-02-13T04:27:24;6.23;;;3.37;;
55069;SDS011;40967;52.070;8.596;2023-02-13T04:29:52;6.40;;;3.50;;
55069;SDS011;40967;52.070;8.596;2023-02-13T04:32:17;6.73;;;3.77;;
55069;SDS011;40967;52.070;8.596;2023-02-13T04:34:43;6.47;;;3.33;;
55069;SDS011;40967;52.070;8.596;2023-02-13T04:37:08;7.18;;;3.90;;
55069;SDS011;40967;52.070;8.596;2023-02-13T04:39:33;6.13;;;3.70;;
55069;SDS011;40967;52.070;8.596;2023-02-13T04:41:59;6.80;;;3.60;;
55069;SDS011;40967;52.070;8.596;2023-02-13T04:44:24;6.88;;;3.60;;
55069;SDS011;40967;52.070;8.596;2023-02-13T04:46:50;6.30;;;3.50;;
55069;SDS011;40967;52.070;8.596;2023-02-13T04:49:15;6.83;;;3.60;;
55069;SDS011;40967;52.070;8.596;2023-02-13T04:51:41;7.07;;;3.90;;
55069;SDS011;40967;52.070;8.596;2023-02-13T04:54:06;7.30;;;4.05;;
55069;SDS011;40967;52.070;8.596;2023-02-13T04:56:31;6.10;;;3.30;;
55069;SDS011;40967;52.070;8.596;2023-02-13T04:58:57;5.97;;;3.20;;
55069;SDS011;40967;52.070;8.596;2023-02-13T05:01:25;5.73;;;2.93;;
55069;SDS011;40967;52.070;8.596;2023-02-13T05:04:01;5.88;;;3.20;;
55069;SDS011;40967;52.070;8.596;2023-02-13T05:06:27;5.55;;;3.05;;
55069;SDS011;40967;52.070;8.596;2023-02-13T05:08:52;6.00;;;3.30;;
55069;SDS011;40967;52.070;8.596;2023-02-13T05:11:17;7.20;;;3.90;;
55069;SDS011;40967;52.070;8.596;2023-02-13T05:13:43;6.13;;;3.13;;
55069;SDS011;40967;52.070;8.596;2023-02-13T05:16:08;5.13;;;2.73;;
55069;SDS011;40967;52.070;8.596;2023-02-13T05:18:33;5.05;;;2.70;;
55069;SDS011;40967;52.070;8.596;2023-02-13T05:20:59;5.60;;;2.90;;
55069;SDS011;40967;52.070;8.596;2023-02-13T05:23:43;5.20;;;2.72;;
55069;SDS011;40967;52.070;8.596;2023-02-13T05:26:08;4.57;;;2.37;;
55069;SDS011;40967;52.070;8.596;2023-02-13T05:28:34;5.23;;;2.60;;
55069;SDS011;40967;52.070;8.596;2023-02-13T05:31:19;5.07;;;2.40;;
55069;SDS011;40967;52.070;8.596;2023-02-13T05:33:45;4.85;;;2.40;;
55069;SDS011;40967;52.070;8.596;2023-02-13T05:36:10;4.97;;;2.47;;
55069;SDS011;40967;52.070;8.596;2023-02-13T05:38:36;4.70;;;2.13;;
55069;SDS011;40967;52.070;8.596;2023-02-13T05:41:01;4.03;;;2.10;;
55069;SDS011;40967;52.070;8.596;2023-02-13T05:43:27;4.67;;;2.30;;
55069;SDS011;40967;52.070;8.596;2023-02-13T05:46:06;4.53;;;2.13;;
55069;SDS011;40967;52.070;8.596;2023-02-13T05:48:33;4.15;;;2.17;;
55069;SDS011;40967;52.070;8.596;2023-02-13T05:50:59;4.10;;;2.20;;
55069;SDS011;40967;52.070;8.596;2023-02-13T05:53:25;4.95;;;2.42;;
55069;SDS011;40967;52.070;8.596;2023-02-13T05:55:50;4.57;;;2.37;;
55069;SDS011;40967;52.070;8.596;2023-02-13T05:58:17;4.60;;;2.28;;
55069;SDS011;40967;52.070;8.596;2023-02-13T06:00:43;4.60;;;2.22;;
55069;SDS011;40967;52.070;8.596;2023-02-13T06:03:09;4.83;;;2.50;;
55069;SDS011;40967;52.070;8.596;2023-02-13T06:05:36;4.75;;;2.35;;
55069;SDS011;40967;52.070;8.596;2023-02-13T06:08:02;4.88;;;2.42;;
55069;SDS011;40967;52.070;8.596;2023-02-13T06:10:27;4.97;;;2.33;;
55069;SDS011;40967;52.070;8.596;2023-02-13T06:12:53;5.07;;;2.40;;
55069;SDS011;40967;52.070;8.596;2023-02-13T06:15:18;4.70;;;2.30;;
55069;SDS011;40967;52.070;8.596;2023-02-13T06:17:43;4.20;;;2.07;;
55069;SDS011;40967;52.070;8.596;2023-02-13T06:20:09;4.17;;;2.17;;
55069;SDS011;40967;52.070;8.596;2023-02-13T06:22:34;4.80;;;2.40;;
55069;SDS011;40967;52.070;8.596;2023-02-13T06:25:00;5.00;;;2.47;;
55069;SDS011;40967;52.070;8.596;2023-02-13T06:27:25;4.63;;;2.40;;
55069;SDS011;40967;52.070;8.596;2023-02-13T06:29:51;4.60;;;2.38;;
55069;SDS011;40967;52.070;8.596;2023-02-13T06:32:17;4.87;;;2.50;;
55069;SDS011;40967;52.070;8.596;2023-02-13T06:34:42;4.82;;;2.50;;
55069;SDS011;40967;52.070;8.596;2023-02-13T06:37:12;5.43;;;2.60;;
55069;SDS011;40967;52.070;8.596;2023-02-13T06:39:37;5.00;;;2.50;;
55069;SDS011;40967;52.070;8.596;2023-02-13T06:42:02;4.87;;;2.53;;
55069;SDS011;40967;52.070;8.596;2023-02-13T06:44:28;5.35;;;2.80;;
55069;SDS011;40967;52.070;8.596;2023-02-13T06:46:53;5.60;;;2.90;;
55069;SDS011;40967;52.070;8.596;2023-02-13T06:49:19;4.97;;;2.53;;
55069;SDS011;40967;52.070;8.596;2023-02-13T06:51:44;4.80;;;2.63;;
55069;SDS011;40967;52.070;8.596;2023-02-13T06:54:09;4.83;;;2.60;;
55069;SDS011;40967;52.070;8.596;2023-02-13T06:56:38;4.80;;;2.35;;
55069;SDS011;40967;52.070;8.596;2023-02-13T06:59:08;5.43;;;2.50;;
55069;SDS011;40967;52.070;8.596;2023-02-13T07:01:33;4.70;;;2.20;;
55069;SDS011;40967;52.070;8.596;2023-02-13T07:06:35;5.10;;;2.57;;
55069;SDS011;40967;52.070;8.596;2023-02-13T07:09:10;5.43;;;2.55;;
55069;SDS011;40967;52.070;8.596;2023-02-13T07:11:38;4.95;;;2.45;;
55069;SDS011;40967;52.070;8.596;2023-02-13T07:14:07;4.77;;;2.40;;
55069;SDS011;40967;52.070;8.596;2023-02-13T07:16:33;4.60;;;2.28;;
55069;SDS011;40967;52.070;8.596;2023-02-13T07:19:08;4.50;;;2.25;;
55069;SDS011;40967;52.070;8.596;2023-02-13T07:21:43;4.78;;;2.58;;
55069;SDS011;40967;52.070;8.596;2023-02-13T07:24:09;4.50;;;2.10;;
55069;SDS011;40967;52.070;8.596;2023-02-13T07:26:34;4.85;;;2.30;;
55069;SDS011;40967;52.070;8.596;2023-02-13T07:29:00;5.20;;;2.30;;
55069;SDS011;40967;52.070;8.596;2023-02-13T07:31:31;4.88;;;2.45;;
55069;SDS011;40967;52.070;8.596;2023-02-13T07:36:44;4.43;;;2.27;;
55069;SDS011;40967;52.070;8.596;2023-02-13T07:39:09;5.32;;;2.60;;
55069;SDS011;40967;52.070;8.596;2023-02-13T07:41:34;4.80;;;2.33;;
55069;SDS011;40967;52.070;8.596;2023-02-13T07:44:00;4.50;;;2.20;;
55069;SDS011;40967;52.070;8.596;2023-02-13T07:46:25;5.05;;;2.30;;
55069;SDS011;40967;52.070;8.596;2023-02-13T07:48:53;5.37;;;2.77;;
55069;SDS011;40967;52.070;8.596;2023-02-13T07:51:20;4.70;;;2.30;;
55069;SDS011;40967;52.070;8.596;2023-02-13T07:53:49;4.85;;;2.25;;
55069;SDS011;40967;52.070;8.596;2023-02-13T07:56:15;4.53;;;2.22;;
55069;SDS011;40967;52.070;8.596;2023-02-13T07:58:40;4.03;;;2.00;;
55069;SDS011;40967;52.070;8.596;2023-02-13T08:01:07;4.47;;;2.30;;
55069;SDS011;40967;52.070;8.596;2023-02-13T08:03:33;5.15;;;2.42;;
55069;SDS011;40967;52.070;8.596;2023-02-13T08:05:59;4.83;;;2.37;;
55069;SDS011;40967;52.070;8.596;2023-02-13T08:08:25;4.60;;;2.10;;
55069;SDS011;40967;52.070;8.596;2023-02-13T08:10:50;4.37;;;2.23;;
55069;SDS011;40967;52.070;8.596;2023-02-13T08:13:34;4.68;;;2.25;;
55069;SDS011;40967;52.070;8.596;2023-02-13T08:16:01;4.85;;;2.40;;
55069;SDS011;40967;52.070;8.596;2023-02-13T08:18:26;4.75;;;2.33;;
55069;SDS011;40967;52.070;8.596;2023-02-13T08:20:52;5.47;;;2.50;;
55069;SDS011;40967;52.070;8.596;2023-02-13T08:23:17;5.27;;;2.40;;
55069;SDS011;40967;52.070;8.596;2023-02-13T08:25:43;4.90;;;2.42;;
55069;SDS011;40967;52.070;8.596;2023-02-13T08:28:09;4.53;;;2.33;;
55069;SDS011;40967;52.070;8.596;2023-02-13T08:30:34;5.38;;;2.20;;
55069;SDS011;40967;52.070;8.596;2023-02-13T08:33:01;4.57;;;2.33;;
55069;SDS011;40967;52.070;8.596;2023-02-13T08:35:36;5.00;;;2.42;;
55069;SDS011;40967;52.070;8.596;2023-02-13T08:38:02;5.40;;;2.28;;
55069;SDS011;40967;52.070;8.596;2023-02-13T08:40:29;4.32;;;2.25;;
55069;SDS011;40967;52.070;8.596;2023-02-13T08:42:58;5.75;;;2.88;;
55069;SDS011;40967;52.070;8.596;2023-02-13T08:45:25;5.60;;;2.70;;
55069;SDS011;40967;52.070;8.596;2023-02-13T08:47:50;5.40;;;2.55;;
55069;SDS011;40967;52.070;8.596;2023-02-13T08:50:19;3.78;;;1.92;;
55069;SDS011;40967;52.070;8.596;2023-02-13T08:52:46;4.50;;;2.22;;
55069;SDS011;40967;52.070;8.596;2023-02-13T08:55:11;5.80;;;2.83;;
55069;SDS011;40967;52.070;8.596;2023-02-13T08:57:40;5.20;;;2.50;;
55069;SDS011;40967;52.070;8.596;2023-02-13T09:00:06;5.50;;;2.83;;
55069;SDS011;40967;52.070;8.596;2023-02-13T09:02:33;4.53;;;2.30;;
55069;SDS011;40967;52.070;8.596;2023-02-13T09:04:59;4.47;;;2.20;;
55069;SDS011;40967;52.070;8.596;2023-02-13T09:07:24;5.07;;;2.50;;
55069;SDS011;40967;52.070;8.596;2023-02-13T09:09:50;4.95;;;2.47;;
55069;SDS011;40967;52.070;8.596;2023-02-13T09:12:15;5.27;;;2.70;;
55069;SDS011;40967;52.070;8.596;2023-02-13T09:14:41;4.50;;;2.00;;
55069;SDS011;40967;52.070;8.596;2023-02-13T09:17:09;4.83;;;2.30;;
55069;SDS011;40967;52.070;8.596;2023-02-13T09:19:34;4.57;;;2.30;;
55069;SDS011;40967;52.070;8.596;2023-02-13T09:22:00;3.80;;;2.10;;
55069;SDS011;40967;52.070;8.596;2023-02-13T09:24:25;4.50;;;2.30;;
55069;SDS011;40967;52.070;8.596;2023-02-13T09:26:51;3.77;;;1.83;;
55069;SDS011;40967;52.070;8.596;2023-02-13T09:29:16;4.70;;;2.10;;
55069;SDS011;40967;52.070;8.596;2023-02-13T09:31:42;4.37;;;2.13;;
55069;SDS011;40967;52.070;8.596;2023-02-13T09:34:07;3.60;;;1.80;;
55069;SDS011;40967;52.070;8.596;2023-02-13T09:36:33;4.63;;;2.50;;
55069;SDS011;40967;52.070;8.596;2023-02-13T09:39:00;4.25;;;2.00;;
55069;SDS011;40967;52.070;8.596;2023-02-13T09:41:47;4.25;;;2.00;;
55069;SDS011;40967;52.070;8.596;2023-02-13T09:44:19;4.63;;;2.05;;
55069;SDS011;40967;52.070;8.596;2023-02-13T09:49:53;4.32;;;2.25;;
55069;SDS011;40967;52.070;8.596;2023-02-13T09:52:35;4.75;;;2.38;;
55069;SDS011;40967;52.070;8.596;2023-02-13T09:55:03;3.92;;;2.35;;
55069;SDS011;40967;52.070;8.596;2023-02-13T09:57:41;3.88;;;2.00;;
55069;SDS011;40967;52.070;8.596;2023-02-13T10:00:45;4.05;;;2.05;;
55069;SDS011;40967;52.070;8.596;2023-02-13T10:05:58;3.08;;;1.60;;
55069;SDS011;40967;52.070;8.596;2023-02-13T10:11:32;4.82;;;2.25;;
55069;SDS011;40967;52.070;8.596;2023-02-13T10:17:06;4.65;;;2.20;;
55069;SDS011;40967;52.070;8.596;2023-02-13T10:22:25;3.55;;;1.80;;
55069;SDS011;40967;52.070;8.596;2023-02-13T10:27:48;3.75;;;1.90;;
55069;SDS011;40967;52.070;8.596;2023-02-13T10:30:22;3.07;;;1.60;;
55069;SDS011;40967;52.070;8.596;2023-02-13T10:35:51;3.80;;;1.88;;
55069;SDS011;40967;52.070;8.596;2023-02-13T10:38:21;3.60;;;1.83;;
55069;SDS011;40967;52.070;8.596;2023-02-13T10:46:55;2.65;;;1.30;;
55069;SDS011;40967;52.070;8.596;2023-02-13T10:58:37;3.10;;;1.80;;
55069;SDS011;40967;52.070;8.596;2023-02-13T11:02:19;3.00;;;1.50;;
55069;SDS011;40967;52.070;8.596;2023-02-13T11:04:28;2.72;;;1.50;;
55069;SDS011;40967;52.070;8.596;2023-02-13T11:07:24;2.78;;;1.50;;
55069;SDS011;40967;52.070;8.596;2023-02-13T11:09:51;2.42;;;1.20;;
55069;SDS011;40967;52.070;8.596;2023-02-13T11:12:26;2.83;;;1.48;;
55069;SDS011;40967;52.070;8.596;2023-02-13T11:15:31;3.75;;;1.80;;
55069;SDS011;40967;52.070;8.596;2023-02-13T11:18:12;2.97;;;1.48;;
55069;SDS011;40967;52.070;8.596;2023-02-13T11:20:43;3.35;;;1.67;;
55069;SDS011;40967;52.070;8.596;2023-02-13T11:25:56;3.92;;;1.85;;
55069;SDS011;40967;52.070;8.596;2023-02-13T11:32:25;3.45;;;1.73;;
55069;SDS011;40967;52.070;8.596;2023-02-13T11:34:55;4.28;;;2.03;;
55069;SDS011;40967;52.070;8.596;2023-02-13T11:38:17;4.18;;;2.05;;
55069;SDS011;40967;52.070;8.596;2023-02-13T11:40:54;3.95;;;2.05;;
55069;SDS011;40967;52.070;8.596;2023-02-13T11:43:48;2.90;;;1.70;;
55069;SDS011;40967;52.070;8.596;2023-02-13T11:46:30;2.65;;;1.30;;
55069;SDS011;40967;52.070;8.596;2023-02-13T11:49:19;3.15;;;1.50;;
55069;SDS011;40967;52.070;8.596;2023-02-13T11:58:41;2.85;;;1.38;;
55069;SDS011;40967;52.070;8.596;2023-02-13T12:03:39;2.03;;;1.00;;
55069;SDS011;40967;52.070;8.596;2023-02-13T12:10:10;2.08;;;1.08;;
55069;SDS011;40967;52.070;8.596;2023-02-13T12:16:43;3.30;;;1.50;;
55069;SDS011;40967;52.070;8.596;2023-02-13T12:19:52;2.92;;;1.65;;
55069;SDS011;40967;52.070;8.596;2023-02-13T12:29:07;3.88;;;2.00;;
55069;SDS011;40967;52.070;8.596;2023-02-13T12:34:44;3.28;;;1.55;;
55069;SDS011;40967;52.070;8.596;2023-02-13T12:45:31;4.28;;;2.30;;
55069;SDS011;40967;52.070;8.596;2023-02-13T12:48:26;4.17;;;2.50;;
55069;SDS011;40967;52.070;8.596;2023-02-13T12:57:44;3.42;;;1.92;;
55069;SDS011;40967;52.070;8.596;2023-02-13T13:06:34;4.68;;;2.50;;
55069;SDS011;40967;52.070;8.596;2023-02-13T13:09:44;4.10;;;2.25;;
55069;SDS011;40967;52.070;8.596;2023-02-13T13:18:55;4.38;;;2.33;;
55069;SDS011;40967;52.070;8.596;2023-02-13T13:35:38;4.38;;;2.35;;
55069;SDS011;40967;52.070;8.596;2023-02-13T13:42:01;4.00;;;2.28;;
55069;SDS011;40967;52.070;8.596;2023-02-13T13:45:20;3.85;;;2.15;;
55069;SDS011;40967;52.070;8.596;2023-02-13T13:50:59;3.63;;;1.98;;
55069;SDS011;40967;52.070;8.596;2023-02-13T13:53:25;3.80;;;1.80;;
55069;SDS011;40967;52.070;8.596;2023-02-13T13:58:44;2.50;;;1.40;;
55069;SDS011;40967;52.070;8.596;2023-02-13T14:01:33;2.83;;;1.50;;
55069;SDS011;40967;52.070;8.596;2023-02-13T14:04:03;2.92;;;1.65;;
55069;SDS011;40967;52.070;8.596;2023-02-13T14:09:37;3.90;;;1.90;;
55069;SDS011;40967;52.070;8.596;2023-02-13T14:14:54;3.20;;;1.80;;
55069;SDS011;40967;52.070;8.596;2023-02-13T14:32:06;3.83;;;1.70;;
55069;SDS011;40967;52.070;8.596;2023-02-13T14:34:40;3.00;;;1.60;;
55069;SDS011;40967;52.070;8.596;2023-02-13T14:43:18;3.22;;;1.60;;
55069;SDS011;40967;52.070;8.596;2023-02-13T14:45:55;3.47;;;1.60;;
55069;SDS011;40967;52.070;8.596;2023-02-13T14:48:30;2.92;;;1.30;;
55069;SDS011;40967;52.070;8.596;2023-02-13T14:51:01;1.90;;;1.00;;
55069;SDS011;40967;52.070;8.596;2023-02-13T14:53:30;2.95;;;1.33;;
55069;SDS011;40967;52.070;8.596;2023-02-13T14:56:10;1.95;;;0.95;;
55069;SDS011;40967;52.070;8.596;2023-02-13T14:58:45;2.80;;;1.50;;
55069;SDS011;40967;52.070;8.596;2023-02-13T15:06:39;2.42;;;1.33;;
55069;SDS011;40967;52.070;8.596;2023-02-13T15:14:49;2.95;;;1.48;;
55069;SDS011;40967;52.070;8.596;2023-02-13T15:17:16;2.70;;;1.50;;
55069;SDS011;40967;52.070;8.596;2023-02-13T15:19:48;2.65;;;1.33;;
55069;SDS011;40967;52.070;8.596;2023-02-13T15:22:16;2.17;;;1.10;;
55069;SDS011;40967;52.070;8.596;2023-02-13T15:24:45;2.70;;;1.40;;
55069;SDS011;40967;52.070;8.596;2023-02-13T15:27:15;2.92;;;1.50;;
55069;SDS011;40967;52.070;8.596;2023-02-13T15:29:56;2.33;;;1.30;;
55069;SDS011;40967;52.070;8.596;2023-02-13T15:32:26;3.00;;;1.70;;
55069;SDS011;40967;52.070;8.596;2023-02-13T15:35:01;3.25;;;1.70;;
55069;SDS011;40967;52.070;8.596;2023-02-13T15:37:44;2.55;;;1.40;;
55069;SDS011;40967;52.070;8.596;2023-02-13T15:40:14;2.73;;;1.47;;
55069;SDS011;40967;52.070;8.596;2023-02-13T15:42:49;2.33;;;1.30;;
55069;SDS011;40967;52.070;8.596;2023-02-13T15:45:15;2.33;;;1.27;;
55069;SDS011;40967;52.070;8.596;2023-02-13T15:47:43;2.60;;;1.50;;
55069;SDS011;40967;52.070;8.596;2023-02-13T15:50:16;2.72;;;1.45;;
55069;SDS011;40967;52.070;8.596;2023-02-13T15:52:43;2.38;;;1.35;;
55069;SDS011;40967;52.070;8.596;2023-02-13T15:55:20;2.78;;;1.40;;
55069;SDS011;40967;52.070;8.596;2023-02-13T15:57:47;1.90;;;1.20;;
55069;SDS011;40967;52.070;8.596;2023-02-13T16:00:17;2.27;;;1.40;;
55069;SDS011;40967;52.070;8.596;2023-02-13T16:02:47;2.67;;;1.40;;
55069;SDS011;40967;52.070;8.596;2023-02-13T16:05:15;2.20;;;1.20;;
55069;SDS011;40967;52.070;8.596;2023-02-13T16:07:48;2.78;;;1.48;;
55069;SDS011;40967;52.070;8.596;2023-02-13T16:12:56;2.90;;;1.42;;
55069;SDS011;40967;52.070;8.596;2023-02-13T16:15:24;2.35;;;1.20;;
55069;SDS011;40967;52.070;8.596;2023-02-13T16:17:52;2.07;;;1.13;;
55069;SDS011;40967;52.070;8.596;2023-02-13T16:20:20;1.80;;;1.17;;
55069;SDS011;40967;52.070;8.596;2023-02-13T16:22:52;2.30;;;1.20;;
55069;SDS011;40967;52.070;8.596;2023-02-13T16:25:32;2.78;;;1.40;;
55069;SDS011;40967;52.070;8.596;2023-02-13T16:28:22;2.28;;;1.20;;
55069;SDS011;40967;52.070;8.596;2023-02-13T16:33:20;2.10;;;1.00;;
55069;SDS011;40967;52.070;8.596;2023-02-13T16:35:49;2.05;;;1.20;;
55069;SDS011;40967;52.070;8.596;2023-02-13T16:38:22;1.80;;;0.90;;
55069;SDS011;40967;52.070;8.596;2023-02-13T16:40:54;1.67;;;0.93;;
55069;SDS011;40967;52.070;8.596;2023-02-13T16:44:04;1.85;;;1.00;;
55069;SDS011;40967;52.070;8.596;2023-02-13T16:56:38;2.38;;;1.15;;
55069;SDS011;40967;52.070;8.596;2023-02-13T17:04:37;2.10;;;1.10;;
55069;SDS011;40967;52.070;8.596;2023-02-13T17:07:03;2.10;;;1.20;;
55069;SDS011;40967;52.070;8.596;2023-02-13T17:09:30;2.33;;;1.30;;
55069;SDS011;40967;52.070;8.596;2023-02-13T17:11:55;2.10;;;1.20;;
55069;SDS011;40967;52.070;8.596;2023-02-13T17:14:21;2.40;;;1.10;;
55069;SDS011;40967;52.070;8.596;2023-02-13T17:16:47;2.27;;;1.13;;
55069;SDS011;40967;52.070;8.596;2023-02-13T17:19:12;2.33;;;1.20;;
55069;SDS011;40967;52.070;8.596;2023-02-13T17:21:38;2.40;;;1.17;;
55069;SDS011;40967;52.070;8.596;2023-02-13T17:24:04;1.88;;;0.95;;
55069;SDS011;40967;52.070;8.596;2023-02-13T17:26:30;1.90;;;1.10;;
55069;SDS011;40967;52.070;8.596;2023-02-13T17:28:56;1.88;;;0.98;;
55069;SDS011;40967;52.070;8.596;2023-02-13T17:31:21;2.07;;;1.13;;
55069;SDS011;40967;52.070;8.596;2023-02-13T17:33:47;2.30;;;1.10;;
55069;SDS011;40967;52.070;8.596;2023-02-13T17:36:13;1.92;;;1.00;;
55069;SDS011;40967;52.070;8.596;2023-02-13T17:38:38;2.33;;;1.10;;
55069;SDS011;40967;52.070;8.596;2023-02-13T17:41:04;2.63;;;1.20;;
55069;SDS011;40967;52.070;8.596;2023-02-13T17:43:35;2.50;;;1.17;;
55069;SDS011;40967;52.070;8.596;2023-02-13T17:46:00;2.03;;;1.17;;
55069;SDS011;40967;52.070;8.596;2023-02-13T17:48:26;2.53;;;1.20;;
55069;SDS011;40967;52.070;8.596;2023-02-13T17:50:51;2.40;;;1.17;;
55069;SDS011;40967;52.070;8.596;2023-02-13T17:55:49;2.25;;;1.27;;
55069;SDS011;40967;52.070;8.596;2023-02-13T17:58:15;2.60;;;1.30;;
55069;SDS011;40967;52.070;8.596;2023-02-13T18:00:41;2.50;;;1.27;;
55069;SDS011;40967;52.070;8.596;2023-02-13T18:03:06;2.85;;;1.50;;
55069;SDS011;40967;52.070;8.596;2023-02-13T18:05:31;2.40;;;1.30;;
55069;SDS011;40967;52.070;8.596;2023-02-13T18:07:57;2.57;;;1.30;;
55069;SDS011;40967;52.070;8.596;2023-02-13T18:10:26;2.45;;;1.30;;
55069;SDS011;40967;52.070;8.596;2023-02-13T18:12:54;2.72;;;1.50;;
55069;SDS011;40967;52.070;8.596;2023-02-13T18:15:21;2.25;;;1.35;;
55069;SDS011;40967;52.070;8.596;2023-02-13T18:17:47;2.83;;;1.47;;
55069;SDS011;40967;52.070;8.596;2023-02-13T18:20:14;2.83;;;1.48;;
55069;SDS011;40967;52.070;8.596;2023-02-13T18:22:41;2.47;;;1.33;;
55069;SDS011;40967;52.070;8.596;2023-02-13T18:25:07;2.90;;;1.50;;
55069;SDS011;40967;52.070;8.596;2023-02-13T18:27:33;3.50;;;1.70;;
55069;SDS011;40967;52.070;8.596;2023-02-13T18:29:58;3.00;;;1.63;;
55069;SDS011;40967;52.070;8.596;2023-02-13T18:32:24;2.78;;;1.52;;
55069;SDS011;40967;52.070;8.596;2023-02-13T18:34:49;2.93;;;1.53;;
55069;SDS011;40967;52.070;8.596;2023-02-13T18:37:15;2.97;;;1.63;;
55069;SDS011;40967;52.070;8.596;2023-02-13T18:39:42;3.33;;;1.73;;
55069;SDS011;40967;52.070;8.596;2023-02-13T18:42:07;3.40;;;1.80;;
55069;SDS011;40967;52.070;8.596;2023-02-13T18:44:33;3.30;;;1.73;;
55069;SDS011;40967;52.070;8.596;2023-02-13T18:46:59;2.97;;;1.53;;
55069;SDS011;40967;52.070;8.596;2023-02-13T18:49:24;3.42;;;1.65;;
55069;SDS011;40967;52.070;8.596;2023-02-13T18:51:50;2.92;;;1.58;;
55069;SDS011;40967;52.070;8.596;2023-02-13T18:54:16;3.10;;;1.50;;
55069;SDS011;40967;52.070;8.596;2023-02-13T18:56:42;3.70;;;1.80;;